sensor_id;sensor_type;location;lat;lon;timestamp;P1;durP1;ratioP1;P2;durP2;ratioP2
1410;SDS011;700;51.906;8.404;2024-02-14T00:04:45;6.90;;;4.67;;
1410;SDS011;700;51.906;8.404;2024-02-14T00:09:46;5.87;;;4.70;;
1410;SDS011;700;51.906;8.404;2024-02-14T00:14:47;5.00;;;4.47;;
1410;SDS011;700;51.906;8.404;2024-02-14T00:19:48;4.00;;;3.43;;
1410;SDS011;700;51.906;8.404;2024-02-14T00:24:51;5.30;;;3.80;;
1410;SDS011;700;51.906;8.404;2024-02-14T00:29:52;5.60;;;4.07;;
1410;SDS011;700;51.906;8.404;2024-02-14T00:34:56;9.90;;;4.57;;
1410;SDS011;700;51.906;8.404;2024-02-14T00:39:56;7.10;;;4.47;;
1410;SDS011;700;51.906;8.404;2024-02-14T00:44:58;4.60;;;3.37;;
1410;SDS011;700;51.906;8.404;2024-02-14T00:49:58;5.90;;;3.37;;
1410;SDS011;700;51.906;8.404;2024-02-14T00:54:59;6.77;;;3.90;;
1410;SDS011;700;51.906;8.404;2024-02-14T01:00:04;4.43;;;3.33;;
1410;SDS011;700;51.906;8.404;2024-02-14T01:05:07;4.63;;;3.00;;
1410;SDS011;700;51.906;8.404;2024-02-14T01:10:08;5.30;;;3.30;;
1410;SDS011;700;51.906;8.404;2024-02-14T01:15:11;5.20;;;2.70;;
1410;SDS011;700;51.906;8.404;2024-02-14T01:20:14;4.50;;;3.77;;
1410;SDS011;700;51.906;8.404;2024-02-14T01:25:18;5.00;;;2.90;;
1410;SDS011;700;51.906;8.404;2024-02-14T01:30:18;9.70;;;3.70;;
1410;SDS011;700;51.906;8.404;2024-02-14T01:35:19;4.00;;;2.73;;
1410;SDS011;700;51.906;8.404;2024-02-14T01:40:22;5.20;;;2.70;;
1410;SDS011;700;51.906;8.404;2024-02-14T01:45:25;5.40;;;2.60;;
1410;SDS011;700;51.906;8.404;2024-02-14T01:50:27;3.90;;;2.70;;
1410;SDS011;700;51.906;8.404;2024-02-14T01:55:31;6.63;;;3.20;;
1410;SDS011;700;51.906;8.404;2024-02-14T02:00:33;4.47;;;2.70;;
1410;SDS011;700;51.906;8.404;2024-02-14T02:05:35;3.90;;;2.70;;
1410;SDS011;700;51.906;8.404;2024-02-14T02:10:36;6.00;;;2.80;;
1410;SDS011;700;51.906;8.404;2024-02-14T02:15:37;5.40;;;2.83;;
1410;SDS011;700;51.906;8.404;2024-02-14T02:20:38;3.50;;;2.80;;
1410;SDS011;700;51.906;8.404;2024-02-14T02:25:39;5.20;;;2.40;;
1410;SDS011;700;51.906;8.404;2024-02-14T02:30:42;3.30;;;2.77;;
1410;SDS011;700;51.906;8.404;2024-02-14T02:35:45;5.23;;;2.70;;
1410;SDS011;700;51.906;8.404;2024-02-14T02:40:51;5.10;;;2.27;;
1410;SDS011;700;51.906;8.404;2024-02-14T02:45:51;5.80;;;2.30;;
1410;SDS011;700;51.906;8.404;2024-02-14T02:50:52;4.73;;;2.40;;
1410;SDS011;700;51.906;8.404;2024-02-14T02:55:53;4.53;;;2.50;;
1410;SDS011;700;51.906;8.404;2024-02-14T03:00:54;3.77;;;1.97;;
1410;SDS011;700;51.906;8.404;2024-02-14T03:05:56;8.80;;;2.30;;
1410;SDS011;700;51.906;8.404;2024-02-14T03:11:06;3.40;;;1.80;;
1410;SDS011;700;51.906;8.404;2024-02-14T03:16:12;2.93;;;1.93;;
1410;SDS011;700;51.906;8.404;2024-02-14T03:21:14;3.83;;;1.93;;
1410;SDS011;700;51.906;8.404;2024-02-14T03:26:15;4.33;;;2.10;;
1410;SDS011;700;51.906;8.404;2024-02-14T03:31:16;4.20;;;1.70;;
1410;SDS011;700;51.906;8.404;2024-02-14T03:36:16;4.63;;;2.00;;
1410;SDS011;700;51.906;8.404;2024-02-14T03:41:17;4.03;;;1.77;;
1410;SDS011;700;51.906;8.404;2024-02-14T03:46:18;3.07;;;1.43;;
1410;SDS011;700;51.906;8.404;2024-02-14T03:51:24;4.30;;;2.90;;
1410;SDS011;700;51.906;8.404;2024-02-14T03:56:24;4.47;;;1.67;;
1410;SDS011;700;51.906;8.404;2024-02-14T04:01:26;2.60;;;1.43;;
1410;SDS011;700;51.906;8.404;2024-02-14T04:06:27;5.40;;;1.63;;
1410;SDS011;700;51.906;8.404;2024-02-14T04:11:28;2.30;;;1.40;;
1410;SDS011;700;51.906;8.404;2024-02-14T04:16:31;4.33;;;1.70;;
1410;SDS011;700;51.906;8.404;2024-02-14T04:21:32;4.43;;;2.00;;
1410;SDS011;700;51.906;8.404;2024-02-14T04:26:33;2.80;;;2.00;;
1410;SDS011;700;51.906;8.404;2024-02-14T04:31:34;2.60;;;1.77;;
1410;SDS011;700;51.906;8.404;2024-02-14T04:36:37;3.73;;;2.60;;
1410;SDS011;700;51.906;8.404;2024-02-14T04:41:40;3.87;;;2.33;;
1410;SDS011;700;51.906;8.404;2024-02-14T04:46:46;3.30;;;2.43;;
1410;SDS011;700;51.906;8.404;2024-02-14T04:51:51;3.83;;;2.33;;
1410;SDS011;700;51.906;8.404;2024-02-14T04:56:52;2.30;;;1.97;;
1410;SDS011;700;51.906;8.404;2024-02-14T05:01:53;5.50;;;2.60;;
1410;SDS011;700;51.906;8.404;2024-02-14T05:06:56;2.63;;;2.43;;
1410;SDS011;700;51.906;8.404;2024-02-14T05:11:57;5.40;;;2.90;;
1410;SDS011;700;51.906;8.404;2024-02-14T05:17:00;4.23;;;2.83;;
1410;SDS011;700;51.906;8.404;2024-02-14T05:22:01;5.17;;;2.97;;
1410;SDS011;700;51.906;8.404;2024-02-14T05:27:02;5.50;;;3.80;;
1410;SDS011;700;51.906;8.404;2024-02-14T05:32:08;3.60;;;2.70;;
1410;SDS011;700;51.906;8.404;2024-02-14T05:37:13;5.50;;;3.00;;
1410;SDS011;700;51.906;8.404;2024-02-14T05:42:14;3.10;;;2.60;;
1410;SDS011;700;51.906;8.404;2024-02-14T05:47:16;4.97;;;3.00;;
1410;SDS011;700;51.906;8.404;2024-02-14T05:52:18;3.87;;;2.60;;
1410;SDS011;700;51.906;8.404;2024-02-14T05:57:19;3.27;;;2.90;;
1410;SDS011;700;51.906;8.404;2024-02-14T06:02:20;3.40;;;2.53;;
1410;SDS011;700;51.906;8.404;2024-02-14T06:07:23;3.70;;;2.73;;
1410;SDS011;700;51.906;8.404;2024-02-14T06:12:23;3.30;;;2.90;;
1410;SDS011;700;51.906;8.404;2024-02-14T06:17:26;4.17;;;3.63;;
1410;SDS011;700;51.906;8.404;2024-02-14T06:22:29;4.47;;;3.67;;
1410;SDS011;700;51.906;8.404;2024-02-14T06:27:30;4.20;;;3.30;;
1410;SDS011;700;51.906;8.404;2024-02-14T06:32:34;4.97;;;4.03;;
1410;SDS011;700;51.906;8.404;2024-02-14T06:37:37;4.77;;;3.60;;
1410;SDS011;700;51.906;8.404;2024-02-14T06:42:40;5.37;;;4.37;;
1410;SDS011;700;51.906;8.404;2024-02-14T06:47:43;4.93;;;4.43;;
1410;SDS011;700;51.906;8.404;2024-02-14T06:52:44;5.67;;;5.10;;
1410;SDS011;700;51.906;8.404;2024-02-14T06:57:44;6.20;;;4.60;;
1410;SDS011;700;51.906;8.404;2024-02-14T07:02:47;5.67;;;5.17;;
1410;SDS011;700;51.906;8.404;2024-02-14T07:07:48;5.20;;;4.43;;
1410;SDS011;700;51.906;8.404;2024-02-14T07:12:51;5.37;;;4.87;;
1410;SDS011;700;51.906;8.404;2024-02-14T07:17:54;7.63;;;5.20;;
1410;SDS011;700;51.906;8.404;2024-02-14T07:22:55;6.30;;;5.47;;
1410;SDS011;700;51.906;8.404;2024-02-14T07:27:56;9.27;;;5.73;;
1410;SDS011;700;51.906;8.404;2024-02-14T07:32:57;8.33;;;4.90;;
1410;SDS011;700;51.906;8.404;2024-02-14T07:37:57;8.10;;;5.33;;
1410;SDS011;700;51.906;8.404;2024-02-14T07:43:03;5.60;;;4.70;;
1410;SDS011;700;51.906;8.404;2024-02-14T07:48:03;5.40;;;4.88;;
1410;SDS011;700;51.906;8.404;2024-02-14T07:53:07;5.27;;;4.73;;
1410;SDS011;700;51.906;8.404;2024-02-14T07:58:08;8.37;;;5.40;;
1410;SDS011;700;51.906;8.404;2024-02-14T08:03:08;6.10;;;4.90;;
1410;SDS011;700;51.906;8.404;2024-02-14T08:08:09;9.07;;;5.43;;
1410;SDS011;700;51.906;8.404;2024-02-14T08:13:12;5.27;;;4.13;;
1410;SDS011;700;51.906;8.404;2024-02-14T08:18:15;5.50;;;4.53;;
1410;SDS011;700;51.906;8.404;2024-02-14T08:23:21;5.87;;;4.53;;
1410;SDS011;700;51.906;8.404;2024-02-14T08:28:22;5.47;;;4.83;;
1410;SDS011;700;51.906;8.404;2024-02-14T08:33:23;5.30;;;4.60;;
1410;SDS011;700;51.906;8.404;2024-02-14T08:38:24;4.97;;;4.13;;
1410;SDS011;700;51.906;8.404;2024-02-14T08:43:27;5.60;;;4.23;;
1410;SDS011;700;51.906;8.404;2024-02-14T08:48:30;4.60;;;4.20;;
1410;SDS011;700;51.906;8.404;2024-02-14T08:53:34;5.10;;;4.10;;
1410;SDS011;700;51.906;8.404;2024-02-14T08:58:38;6.03;;;4.60;;
1410;SDS011;700;51.906;8.404;2024-02-14T09:03:41;4.40;;;4.00;;
1410;SDS011;700;51.906;8.404;2024-02-14T09:08:50;5.20;;;4.50;;
1410;SDS011;700;51.906;8.404;2024-02-14T09:13:53;4.90;;;4.20;;
1410;SDS011;700;51.906;8.404;2024-02-14T09:18:56;5.40;;;4.73;;
1410;SDS011;700;51.906;8.404;2024-02-14T09:23:56;6.73;;;4.43;;
1410;SDS011;700;51.906;8.404;2024-02-14T09:28:57;6.77;;;5.30;;
1410;SDS011;700;51.906;8.404;2024-02-14T09:34:03;4.77;;;4.37;;
1410;SDS011;700;51.906;8.404;2024-02-14T09:39:03;5.10;;;4.60;;
1410;SDS011;700;51.906;8.404;2024-02-14T09:44:07;7.07;;;5.73;;
1410;SDS011;700;51.906;8.404;2024-02-14T09:49:10;7.03;;;5.20;;
1410;SDS011;700;51.906;8.404;2024-02-14T09:54:16;5.93;;;5.10;;
1410;SDS011;700;51.906;8.404;2024-02-14T09:59:18;6.37;;;5.77;;
1410;SDS011;700;51.906;8.404;2024-02-14T10:04:22;5.53;;;4.83;;
1410;SDS011;700;51.906;8.404;2024-02-14T10:09:26;5.47;;;4.87;;
1410;SDS011;700;51.906;8.404;2024-02-14T10:14:32;6.23;;;5.30;;
1410;SDS011;700;51.906;8.404;2024-02-14T10:19:36;6.83;;;6.13;;
1410;SDS011;700;51.906;8.404;2024-02-14T10:24:40;8.27;;;5.70;;
1410;SDS011;700;51.906;8.404;2024-02-14T10:29:40;5.43;;;4.87;;
1410;SDS011;700;51.906;8.404;2024-02-14T10:34:43;5.87;;;5.27;;
1410;SDS011;700;51.906;8.404;2024-02-14T10:39:47;6.80;;;5.50;;
1410;SDS011;700;51.906;8.404;2024-02-14T10:44:52;5.60;;;5.00;;
1410;SDS011;700;51.906;8.404;2024-02-14T10:49:57;5.80;;;5.30;;
1410;SDS011;700;51.906;8.404;2024-02-14T10:55:03;9.30;;;6.97;;
1410;SDS011;700;51.906;8.404;2024-02-14T11:00:08;6.73;;;5.13;;
1410;SDS011;700;51.906;8.404;2024-02-14T11:05:14;6.00;;;4.90;;
1410;SDS011;700;51.906;8.404;2024-02-14T11:10:19;9.53;;;5.97;;
1410;SDS011;700;51.906;8.404;2024-02-14T11:15:22;6.13;;;5.10;;
1410;SDS011;700;51.906;8.404;2024-02-14T11:20:31;5.10;;;4.30;;
1410;SDS011;700;51.906;8.404;2024-02-14T11:25:33;5.00;;;4.37;;
1410;SDS011;700;51.906;8.404;2024-02-14T11:30:34;7.50;;;3.97;;
1410;SDS011;700;51.906;8.404;2024-02-14T11:35:35;3.97;;;3.03;;
1410;SDS011;700;51.906;8.404;2024-02-14T11:40:40;7.27;;;3.30;;
1410;SDS011;700;51.906;8.404;2024-02-14T11:45:44;4.10;;;3.07;;
1410;SDS011;700;51.906;8.404;2024-02-14T11:50:46;4.90;;;3.20;;
1410;SDS011;700;51.906;8.404;2024-02-14T11:55:51;3.97;;;3.45;;
1410;SDS011;700;51.906;8.404;2024-02-14T12:00:51;5.70;;;3.00;;
1410;SDS011;700;51.906;8.404;2024-02-14T12:05:55;3.30;;;2.67;;
1410;SDS011;700;51.906;8.404;2024-02-14T12:10:57;3.33;;;3.03;;
1410;SDS011;700;51.906;8.404;2024-02-14T12:15:58;2.77;;;2.57;;
1410;SDS011;700;51.906;8.404;2024-02-14T12:21:05;2.73;;;2.53;;
1410;SDS011;700;51.906;8.404;2024-02-14T12:26:09;4.63;;;2.60;;
1410;SDS011;700;51.906;8.404;2024-02-14T12:31:21;3.03;;;2.33;;
1410;SDS011;700;51.906;8.404;2024-02-14T12:36:22;6.80;;;3.07;;
1410;SDS011;700;51.906;8.404;2024-02-14T12:41:23;4.80;;;3.00;;
1410;SDS011;700;51.906;8.404;2024-02-14T12:46:26;3.13;;;2.77;;
1410;SDS011;700;51.906;8.404;2024-02-14T12:51:27;3.20;;;2.30;;
1410;SDS011;700;51.906;8.404;2024-02-14T12:56:31;3.17;;;2.30;;
1410;SDS011;700;51.906;8.404;2024-02-14T13:01:31;3.00;;;2.70;;
1410;SDS011;700;51.906;8.404;2024-02-14T13:06:32;4.00;;;2.80;;
1410;SDS011;700;51.906;8.404;2024-02-14T13:11:34;6.40;;;2.47;;
1410;SDS011;700;51.906;8.404;2024-02-14T13:16:35;3.23;;;2.93;;
1410;SDS011;700;51.906;8.404;2024-02-14T13:21:38;3.30;;;2.73;;
1410;SDS011;700;51.906;8.404;2024-02-14T13:26:45;7.30;;;2.73;;
1410;SDS011;700;51.906;8.404;2024-02-14T13:31:48;3.70;;;2.50;;
1410;SDS011;700;51.906;8.404;2024-02-14T13:36:48;3.07;;;2.43;;
1410;SDS011;700;51.906;8.404;2024-02-14T13:41:51;2.80;;;2.37;;
1410;SDS011;700;51.906;8.404;2024-02-14T13:46:57;3.03;;;2.73;;
1410;SDS011;700;51.906;8.404;2024-02-14T13:51:57;2.53;;;2.03;;
1410;SDS011;700;51.906;8.404;2024-02-14T13:57:00;3.30;;;2.60;;
1410;SDS011;700;51.906;8.404;2024-02-14T14:02:01;3.00;;;2.47;;
1410;SDS011;700;51.906;8.404;2024-02-14T14:07:02;4.10;;;3.07;;
1410;SDS011;700;51.906;8.404;2024-02-14T14:12:04;3.07;;;2.40;;
1410;SDS011;700;51.906;8.404;2024-02-14T14:17:07;4.00;;;3.33;;
1410;SDS011;700;51.906;8.404;2024-02-14T14:22:08;3.03;;;2.60;;
1410;SDS011;700;51.906;8.404;2024-02-14T14:27:11;3.07;;;2.60;;
1410;SDS011;700;51.906;8.404;2024-02-14T14:32:15;3.00;;;2.60;;
1410;SDS011;700;51.906;8.404;2024-02-14T14:37:18;3.60;;;2.60;;
1410;SDS011;700;51.906;8.404;2024-02-14T14:42:19;4.20;;;2.93;;
1410;SDS011;700;51.906;8.404;2024-02-14T14:47:19;4.40;;;3.20;;
1410;SDS011;700;51.906;8.404;2024-02-14T14:52:22;3.20;;;2.80;;
1410;SDS011;700;51.906;8.404;2024-02-14T14:57:26;5.10;;;2.90;;
1410;SDS011;700;51.906;8.404;2024-02-14T15:02:26;4.63;;;1.93;;
1410;SDS011;700;51.906;8.404;2024-02-14T15:07:27;2.60;;;2.40;;
1410;SDS011;700;51.906;8.404;2024-02-14T15:12:28;4.93;;;2.33;;
1410;SDS011;700;51.906;8.404;2024-02-14T15:17:31;3.20;;;2.53;;
1410;SDS011;700;51.906;8.404;2024-02-14T15:22:31;4.47;;;2.00;;
1410;SDS011;700;51.906;8.404;2024-02-14T15:27:35;3.85;;;2.10;;
1410;SDS011;700;51.906;8.404;2024-02-14T15:32:42;3.10;;;1.73;;
1410;SDS011;700;51.906;8.404;2024-02-14T15:38:04;3.27;;;2.37;;
1410;SDS011;700;51.906;8.404;2024-02-14T15:43:07;3.70;;;1.90;;
1410;SDS011;700;51.906;8.404;2024-02-14T15:48:08;5.73;;;2.10;;
1410;SDS011;700;51.906;8.404;2024-02-14T15:53:13;2.43;;;1.87;;
1410;SDS011;700;51.906;8.404;2024-02-14T15:58:14;1.97;;;1.73;;
1410;SDS011;700;51.906;8.404;2024-02-14T16:03:15;4.40;;;2.93;;
1410;SDS011;700;51.906;8.404;2024-02-14T16:08:16;2.60;;;2.30;;
1410;SDS011;700;51.906;8.404;2024-02-14T16:13:19;3.30;;;2.50;;
1410;SDS011;700;51.906;8.404;2024-02-14T16:18:19;5.87;;;2.80;;
1410;SDS011;700;51.906;8.404;2024-02-14T16:23:20;3.33;;;2.90;;
1410;SDS011;700;51.906;8.404;2024-02-14T16:28:21;3.37;;;2.60;;
1410;SDS011;700;51.906;8.404;2024-02-14T16:33:21;4.43;;;2.90;;
1410;SDS011;700;51.906;8.404;2024-02-14T16:38:22;4.00;;;2.97;;
1410;SDS011;700;51.906;8.404;2024-02-14T16:43:23;4.10;;;2.57;;
1410;SDS011;700;51.906;8.404;2024-02-14T16:48:24;4.37;;;2.73;;
1410;SDS011;700;51.906;8.404;2024-02-14T16:53:25;4.37;;;2.43;;
1410;SDS011;700;51.906;8.404;2024-02-14T16:58:26;4.00;;;3.10;;
1410;SDS011;700;51.906;8.404;2024-02-14T17:03:26;3.90;;;2.57;;
1410;SDS011;700;51.906;8.404;2024-02-14T17:08:29;4.00;;;2.77;;
1410;SDS011;700;51.906;8.404;2024-02-14T17:13:33;3.20;;;2.57;;
1410;SDS011;700;51.906;8.404;2024-02-14T17:18:33;5.63;;;3.00;;
1410;SDS011;700;51.906;8.404;2024-02-14T17:23:34;4.67;;;3.17;;
1410;SDS011;700;51.906;8.404;2024-02-14T17:28:35;4.50;;;2.97;;
1410;SDS011;700;51.906;8.404;2024-02-14T17:33:35;3.90;;;2.70;;
1410;SDS011;700;51.906;8.404;2024-02-14T17:38:38;4.07;;;2.70;;
1410;SDS011;700;51.906;8.404;2024-02-14T17:43:39;3.30;;;2.80;;
1410;SDS011;700;51.906;8.404;2024-02-14T17:48:39;3.80;;;2.80;;
1410;SDS011;700;51.906;8.404;2024-02-14T17:53:40;4.20;;;2.90;;
1410;SDS011;700;51.906;8.404;2024-02-14T17:58:41;4.40;;;3.40;;
1410;SDS011;700;51.906;8.404;2024-02-14T18:03:43;3.70;;;3.40;;
1410;SDS011;700;51.906;8.404;2024-02-14T18:08:46;4.17;;;3.77;;
1410;SDS011;700;51.906;8.404;2024-02-14T18:13:46;4.13;;;3.83;;
1410;SDS011;700;51.906;8.404;2024-02-14T18:18:52;3.90;;;3.50;;
1410;SDS011;700;51.906;8.404;2024-02-14T18:23:55;3.17;;;2.87;;
1410;SDS011;700;51.906;8.404;2024-02-14T18:28:57;5.77;;;3.50;;
1410;SDS011;700;51.906;8.404;2024-02-14T18:33:57;3.23;;;2.93;;
1410;SDS011;700;51.906;8.404;2024-02-14T18:39:00;3.50;;;2.83;;
1410;SDS011;700;51.906;8.404;2024-02-14T18:44:03;3.60;;;3.00;;
1410;SDS011;700;51.906;8.404;2024-02-14T18:49:08;2.83;;;2.17;;
1410;SDS011;700;51.906;8.404;2024-02-14T18:54:09;2.90;;;2.13;;
1410;SDS011;700;51.906;8.404;2024-02-14T18:59:10;2.60;;;2.23;;
1410;SDS011;700;51.906;8.404;2024-02-14T19:04:14;2.97;;;2.63;;
1410;SDS011;700;51.906;8.404;2024-02-14T19:09:15;3.70;;;3.27;;
1410;SDS011;700;51.906;8.404;2024-02-14T19:14:20;6.50;;;4.00;;
1410;SDS011;700;51.906;8.404;2024-02-14T19:19:24;3.97;;;3.23;;
1410;SDS011;700;51.906;8.404;2024-02-14T19:24:27;3.20;;;2.90;;
1410;SDS011;700;51.906;8.404;2024-02-14T19:29:30;3.33;;;2.90;;
1410;SDS011;700;51.906;8.404;2024-02-14T19:34:31;4.33;;;2.53;;
1410;SDS011;700;51.906;8.404;2024-02-14T19:39:32;3.77;;;3.03;;
1410;SDS011;700;51.906;8.404;2024-02-14T19:44:34;4.87;;;3.50;;
1410;SDS011;700;51.906;8.404;2024-02-14T19:49:36;4.53;;;3.70;;
1410;SDS011;700;51.906;8.404;2024-02-14T19:54:39;6.20;;;5.13;;
1410;SDS011;700;51.906;8.404;2024-02-14T19:59:40;4.57;;;4.07;;
1410;SDS011;700;51.906;8.404;2024-02-14T20:04:43;5.30;;;4.80;;
1410;SDS011;700;51.906;8.404;2024-02-14T20:09:44;5.80;;;5.20;;
1410;SDS011;700;51.906;8.404;2024-02-14T20:14:45;6.33;;;5.23;;
1410;SDS011;700;51.906;8.404;2024-02-14T20:19:45;7.00;;;6.30;;
1410;SDS011;700;51.906;8.404;2024-02-14T20:24:49;10.00;;;6.17;;
1410;SDS011;700;51.906;8.404;2024-02-14T20:29:50;8.00;;;6.77;;
1410;SDS011;700;51.906;8.404;2024-02-14T20:34:53;8.07;;;7.00;;
1410;SDS011;700;51.906;8.404;2024-02-14T20:39:53;9.30;;;7.10;;
1410;SDS011;700;51.906;8.404;2024-02-14T20:44:54;7.93;;;6.50;;
1410;SDS011;700;51.906;8.404;2024-02-14T20:50:00;9.43;;;8.20;;
1410;SDS011;700;51.906;8.404;2024-02-14T20:55:06;7.70;;;7.00;;
1410;SDS011;700;51.906;8.404;2024-02-14T21:00:07;8.93;;;7.83;;
1410;SDS011;700;51.906;8.404;2024-02-14T21:05:09;8.97;;;8.07;;
1410;SDS011;700;51.906;8.404;2024-02-14T21:10:09;8.30;;;7.50;;
1410;SDS011;700;51.906;8.404;2024-02-14T21:15:11;9.60;;;8.60;;
1410;SDS011;700;51.906;8.404;2024-02-14T21:20:11;9.33;;;8.40;;
1410;SDS011;700;51.906;8.404;2024-02-14T21:25:14;9.57;;;8.57;;
1410;SDS011;700;51.906;8.404;2024-02-14T21:30:15;11.83;;;8.20;;
1410;SDS011;700;51.906;8.404;2024-02-14T21:35:16;12.03;;;9.80;;
1410;SDS011;700;51.906;8.404;2024-02-14T21:40:17;9.73;;;8.03;;
1410;SDS011;700;51.906;8.404;2024-02-14T21:45:18;9.40;;;8.50;;
1410;SDS011;700;51.906;8.404;2024-02-14T21:50:22;9.40;;;8.13;;
1410;SDS011;700;51.906;8.404;2024-02-14T21:55:22;9.77;;;8.87;;
1410;SDS011;700;51.906;8.404;2024-02-14T22:00:23;9.13;;;8.10;;
1410;SDS011;700;51.906;8.404;2024-02-14T22:05:24;10.67;;;9.57;;
1410;SDS011;700;51.906;8.404;2024-02-14T22:10:30;11.13;;;10.03;;
1410;SDS011;700;51.906;8.404;2024-02-14T22:15:30;10.30;;;9.30;;
1410;SDS011;700;51.906;8.404;2024-02-14T22:20:31;10.70;;;9.60;;
1410;SDS011;700;51.906;8.404;2024-02-14T22:25:34;10.83;;;9.73;;
1410;SDS011;700;51.906;8.404;2024-02-14T22:30:37;10.67;;;9.57;;
1410;SDS011;700;51.906;8.404;2024-02-14T22:35:38;12.97;;;11.60;;
1410;SDS011;700;51.906;8.404;2024-02-14T22:40:39;14.67;;;10.90;;
1410;SDS011;700;51.906;8.404;2024-02-14T22:45:40;11.20;;;10.10;;
1410;SDS011;700;51.906;8.404;2024-02-14T22:50:40;12.43;;;10.83;;
1410;SDS011;700;51.906;8.404;2024-02-14T22:55:41;13.87;;;9.90;;
1410;SDS011;700;51.906;8.404;2024-02-14T23:00:42;12.57;;;10.20;;
1410;SDS011;700;51.906;8.404;2024-02-14T23:05:42;11.10;;;10.00;;
1410;SDS011;700;51.906;8.404;2024-02-14T23:10:44;12.10;;;9.77;;
1410;SDS011;700;51.906;8.404;2024-02-14T23:15:44;10.47;;;9.37;;
1410;SDS011;700;51.906;8.404;2024-02-14T23:20:47;11.87;;;10.67;;
1410;SDS011;700;51.906;8.404;2024-02-14T23:25:47;12.33;;;11.03;;
1410;SDS011;700;51.906;8.404;2024-02-14T23:30:50;10.83;;;9.73;;
1410;SDS011;700;51.906;8.404;2024-02-14T23:35:53;13.57;;;9.77;;
1410;SDS011;700;51.906;8.404;2024-02-14T23:40:55;11.57;;;10.37;;
1410;SDS011;700;51.906;8.404;2024-02-14T23:45:56;9.60;;;8.60;;
1410;SDS011;700;51.906;8.404;2024-02-14T23:50:56;11.30;;;10.10;;
1410;SDS011;700;51.906;8.404;2024-02-14T23:55:58;10.80;;;8.73;;
